Time;durP1;ratioP1;P1;durP2;ratioP2;P2;SDS_P1;SDS_P2;PMS_P1;PMS_P2;Temp;Humidity;BMP_temperature;BMP_pressure;BME280_temperature;BME280_humidity;BME280_pressure;Samples;Min_cycle;Max_cycle;Signal;HPM_P1;HPM_P2
2022/05/17 00:00:23;;;;;;;;;;;;;;;16.02;72.44;99947.44;5066001;28;19975;-73
2022/05/17 00:02:48;;;;;;;;;;;;;;;16.01;72.45;99943.09;5065277;28;20381;-73
2022/05/17 00:05:14;;;;;;;;;;;;;;;15.99;72.26;99942.41;5065485;28;19975;-73
2022/05/17 00:07:39;;;;;;;;;;;;;;;16.01;72.41;99943.94;5065442;28;20461;-74
2022/05/17 00:10:05;;;;;;;;;;;;;;;15.98;72.42;99946.84;5064515;28;20025;-74
2022/05/17 00:12:31;;;;;;;;;;;;;;;15.95;72.37;99938.31;5066253;28;19971;-73
2022/05/17 00:14:56;;;;;;;;;;;;;;;15.93;72.36;99941.06;5064558;28;20580;-73
2022/05/17 00:17:21;;;;;;;;;;;;;;;15.89;72.37;99932.53;5065200;28;20021;-73
2022/05/17 00:19:47;;;;;;;;;;;;;;;15.85;72.26;99928.47;5064342;28;19968;-73
2022/05/17 00:22:12;;;;;;;;;;;;;;;15.85;72.34;99933.75;5065771;28;19978;-73
2022/05/17 00:24:37;;;;;;;;;;;;;;;15.84;72.20;99921.47;5065634;28;19985;-73
2022/05/17 00:27:03;;;;;;;;;;;;;;;15.84;71.99;99928.56;5064834;28;19967;-75
2022/05/17 00:29:29;;;;;;;;;;;;;;;15.83;72.16;99933.03;5046532;28;20023;-73
2022/05/17 00:31:54;;;;;;;;;;;;;;;15.82;72.13;99931.31;5065030;28;20627;-74
2022/05/17 00:34:20;;;;;;;;;;;;;;;15.81;71.94;99927.00;5065391;28;20044;-74
2022/05/17 00:36:46;;;;;;;;;;;;;;;15.79;71.97;99922.81;5065079;28;20419;-74
2022/05/17 00:39:11;;;;;;;;;;;;;;;15.76;72.17;99920.41;5064023;28;19997;-74
2022/05/17 00:41:36;;;;;;;;;;;;;;;15.74;72.00;99924.97;5064999;28;20026;-74
2022/05/17 00:46:53;;;;;;;;;;;;;;;15.74;72.23;99922.31;5063702;28;19967;-74
2022/05/17 00:49:24;;;;;;;;;;;;;;;15.73;72.03;99920.66;5065151;28;20088;-74
2022/05/17 00:51:50;;;;;;;;;;;;;;;15.73;72.41;99915.34;5064086;28;20078;-73
2022/05/17 00:54:16;;;;;;;;;;;;;;;15.71;72.15;99928.72;5064818;28;19999;-75
2022/05/17 00:56:46;;;;;;;;;;;;;;;15.68;72.29;99919.19;5064916;28;19968;-74
2022/05/17 00:59:11;;;;;;;;;;;;;;;15.68;72.30;99927.13;5064811;28;20030;-74
2022/05/17 01:01:37;;;;;;;;;;;;;;;15.68;72.31;99921.84;5062141;28;20032;-73
2022/05/17 01:04:05;;;;;;;;;;;;;;;15.62;72.65;99916.19;5060414;28;20393;-74
2022/05/17 01:06:42;;;;;;;;;;;;;;;15.51;72.86;99911.75;5062145;28;19982;-73
2022/05/17 01:09:08;;;;;;;;;;;;;;;15.47;72.72;99912.94;5064854;28;20097;-73
2022/05/17 01:11:33;;;;;;;;;;;;;;;15.45;72.91;99909.59;5065476;28;20075;-73
2022/05/17 01:16:42;;;;;;;;;;;;;;;15.40;73.11;99914.41;5062867;28;20679;-73
2022/05/17 01:19:08;;;;;;;;;;;;;;;15.35;73.02;99914.75;5064627;28;19994;-74
2022/05/17 01:21:34;;;;;;;;;;;;;;;15.32;73.26;99922.09;5064815;28;19982;-73
2022/05/17 01:23:59;;;;;;;;;;;;;;;15.28;73.43;99924.13;5062774;28;19975;-73
2022/05/17 01:26:26;;;;;;;;;;;;;;;15.22;73.31;99924.59;5064425;28;19972;-73
2022/05/17 01:28:51;;;;;;;;;;;;;;;15.18;73.63;99918.72;5064287;28;20033;-73
2022/05/17 01:31:18;;;;;;;;;;;;;;;15.15;73.57;99913.69;5064099;28;20403;-74
2022/05/17 01:33:43;;;;;;;;;;;;;;;15.13;73.80;99918.22;5061983;28;20443;-74
2022/05/17 01:36:10;;;;;;;;;;;;;;;15.12;73.75;99915.69;5064422;28;19982;-73
2022/05/17 01:38:36;;;;;;;;;;;;;;;15.08;74.10;99912.44;5064521;28;19991;-73
2022/05/17 01:41:01;;;;;;;;;;;;;;;15.04;74.13;99919.78;5062913;28;20450;-73
2022/05/17 01:43:27;;;;;;;;;;;;;;;14.99;74.32;99915.81;5066041;28;19972;-74
2022/05/17 01:45:52;;;;;;;;;;;;;;;14.95;74.27;99919.66;5063504;28;20061;-73
2022/05/17 01:48:18;;;;;;;;;;;;;;;14.92;74.44;99910.16;5062576;28;19979;-73
2022/05/17 01:50:43;;;;;;;;;;;;;;;14.92;74.56;99906.66;5064538;28;19967;-74
2022/05/17 01:53:08;;;;;;;;;;;;;;;14.92;74.32;99917.25;5063979;28;19982;-73
2022/05/17 01:55:34;;;;;;;;;;;;;;;14.93;74.35;99910.97;5062948;28;20020;-73
2022/05/17 01:57:59;;;;;;;;;;;;;;;;;;5062772;28;20023;-74
2022/05/17 02:00:25;;;;;;;;;;;;;;;14.91;nan;99912.94;5064167;28;20252;-73
2022/05/17 02:02:50;;;;;;;;;;;;;;;14.89;nan;99909.56;5063318;28;20482;-74
2022/05/17 02:05:17;;;;;;;;;;;;;;;14.90;nan;99912.06;5062980;28;20436;-73
2022/05/17 02:07:42;;;;;;;;;;;;;;;14.90;nan;99916.50;5063969;28;20057;-74
2022/05/17 02:10:08;;;;;;;;;;;;;;;14.88;nan;99913.13;5063475;28;20018;-74
2022/05/17 02:12:33;;;;;;;;;;;;;;;14.88;nan;99907.84;5064256;28;19982;-73
2022/05/17 02:14:59;;;;;;;;;;;;;;;14.85;nan;99916.84;5061632;28;19983;-75
2022/05/17 02:17:24;;;;;;;;;;;;;;;14.74;nan;99916.84;5062372;28;20060;-73
2022/05/17 02:19:49;;;;;;;;;;;;;;;14.64;nan;99918.53;5062694;28;20120;-75
2022/05/17 02:22:14;;;;;;;;;;;;;;;14.58;nan;99918.03;5062853;28;19993;-74
2022/05/17 02:24:40;;;;;;;;;;;;;;;14.54;nan;99911.25;5064262;28;20029;-74
2022/05/17 02:27:05;;;;;;;;;;;;;;;14.55;nan;99914.75;5061499;28;19971;-73
2022/05/17 02:29:31;;;;;;;;;;;;;;;14.57;nan;99915.47;5063648;28;20446;-73
2022/05/17 02:31:56;;;;;;;;;;;;;;;14.61;nan;99922.22;5062806;28;20214;-74
2022/05/17 02:34:22;;;;;;;;;;;;;;;14.63;nan;99919.47;5063085;28;19987;-73
2022/05/17 02:36:47;;;;;;;;;;;;;;;14.63;nan;99917.66;5062607;28;20439;-74
2022/05/17 02:39:13;;;;;;;;;;;;;;;14.64;nan;99916.72;5063172;28;19995;-73
2022/05/17 02:41:38;;;;;;;;;;;;;;;14.66;nan;99914.78;5064516;28;20022;-74
2022/05/17 02:44:03;;;;;;;;;;;;;;;14.66;nan;99917.41;5064250;28;19975;-73
2022/05/17 02:46:30;;;;;;;;;;;;;;;14.65;nan;99921.03;5062971;28;19971;-74
2022/05/17 02:48:55;;;;;;;;;;;;;;;14.66;nan;99919.22;5063009;28;20463;-73
2022/05/17 02:51:22;;;;;;;;;;;;;;;14.66;nan;99913.94;5064122;28;20117;-74
2022/05/17 02:53:47;;;;;;;;;;;;;;;14.68;nan;99920.78;5062840;28;19991;-73
2022/05/17 02:56:13;;;;;;;;;;;;;;;14.67;nan;99923.56;5063809;28;19967;-73
2022/05/17 02:58:38;;;;;;;;;;;;;;;14.62;nan;99923.06;5063264;28;20010;-73
2022/05/17 03:01:04;;;;;;;;;;;;;;;14.53;nan;99922.81;5064260;28;19971;-73
2022/05/17 03:03:29;;;;;;;;;;;;;;;14.48;nan;99927.56;5065914;28;19998;-74
2022/05/17 03:05:55;;;;;;;;;;;;;;;14.43;nan;99928.88;5065283;28;20375;-75
2022/05/17 03:08:20;;;;;;;;;;;;;;;14.36;nan;99925.81;5066038;28;20379;-73
2022/05/17 03:10:46;;;;;;;;;;;;;;;14.29;nan;99929.88;5064540;28;19971;-75
2022/05/17 03:13:12;;;;;;;;;;;;;;;14.24;nan;99932.03;5066775;28;20033;-75
2022/05/17 03:15:37;;;;;;;;;;;;;;;14.25;nan;99923.13;5065773;28;20601;-73
2022/05/17 03:18:03;;;;;;;;;;;;;;;14.27;nan;99930.00;5066303;28;19991;-74
2022/05/17 03:20:28;;;;;;;;;;;;;;;14.29;nan;99937.81;5065558;28;19974;-73
2022/05/17 03:22:53;;;;;;;;;;;;;;;14.24;nan;99943.44;5066614;28;19975;-73
2022/05/17 03:25:19;;;;;;;;;;;;;;;14.12;nan;99939.03;5066773;28;19994;-73
2022/05/17 03:27:44;;;;;;;;;;;;;;;14.03;nan;99942.34;5065531;28;20641;-75
2022/05/17 03:30:10;;;;;;;;;;;;;;;13.95;nan;99937.63;5064501;28;19967;-73
2022/05/17 03:32:35;;;;;;;;;;;;;;;13.88;nan;99939.88;5065014;28;20580;-74
2022/05/17 03:35:01;;;;;;;;;;;;;;;13.84;nan;99946.31;5066724;28;19998;-73
2022/05/17 03:37:26;;;;;;;;;;;;;;;13.83;nan;99947.28;5067916;28;19998;-73
2022/05/17 03:39:52;;;;;;;;;;;;;;;13.83;nan;99943.81;5067031;28;19971;-74
2022/05/17 03:42:17;;;;;;;;;;;;;;;13.86;nan;99949.69;5066957;28;19971;-73
2022/05/17 03:44:43;;;;;;;;;;;;;;;13.94;nan;99947.34;5065764;28;19971;-75
2022/05/17 03:47:08;;;;;;;;;;;;;;;14.01;nan;99945.09;5064872;28;19990;-74
2022/05/17 03:49:36;;;;;;;;;;;;;;;14.06;nan;99948.25;5067052;28;19971;-75
2022/05/17 03:52:01;;;;;;;;;;;;;;;14.13;nan;99943.38;5064733;28;19982;-75
2022/05/17 03:54:27;;;;;;;;;;;;;;;14.19;nan;99945.56;5066301;28;19995;-75
2022/05/17 03:56:56;;;;;;;;;;;;;;;14.26;nan;99946.81;5064084;28;19971;-74
2022/05/17 03:59:22;;;;;;;;;;;;;;;14.31;nan;99949.97;5065408;28;19983;-75
2022/05/17 04:01:47;;;;;;;;;;;;;;;14.36;nan;99949.59;5064530;28;20127;-75
2022/05/17 04:04:12;;;;;;;;;;;;;;;14.42;nan;99948.31;5064504;28;20027;-75
2022/05/17 04:06:38;;;;;;;;;;;;;;;14.45;nan;99943.66;5066554;28;19975;-75
2022/05/17 04:09:05;;;;;;;;;;;;;;;14.47;nan;99951.44;5065263;28;19999;-75
2022/05/17 04:11:31;;;;;;;;;;;;;;;14.49;nan;99946.91;5065801;28;19990;-75
2022/05/17 04:13:56;;;;;;;;;;;;;;;14.54;nan;99944.78;5063769;28;19987;-74
2022/05/17 04:16:21;;;;;;;;;;;;;;;14.57;nan;99953.31;5064608;28;19982;-75
2022/05/17 04:18:47;;;;;;;;;;;;;;;14.58;nan;99954.16;5065443;28;20452;-74
2022/05/17 04:21:13;;;;;;;;;;;;;;;14.56;nan;99951.66;5065468;28;19975;-74
2022/05/17 04:23:38;;;;;;;;;;;;;;;14.53;nan;99951.88;5064189;28;19994;-75
2022/05/17 04:26:04;;;;;;;;;;;;;;;14.52;nan;99950.19;5065060;28;19978;-75
2022/05/17 04:28:30;;;;;;;;;;;;;;;14.56;nan;99956.09;5064617;28;19987;-75
2022/05/17 04:30:55;;;;;;;;;;;;;;;14.64;nan;99947.59;5064314;28;19975;-75
2022/05/17 04:33:21;;;;;;;;;;;;;;;14.75;nan;99944.97;5064557;28;20089;-76
2022/05/17 04:35:46;;;;;;;;;;;;;;;14.87;nan;99951.13;5065167;28;20002;-76
2022/05/17 04:38:12;;;;;;;;;;;;;;;14.98;nan;99957.28;5064315;28;19987;-76
2022/05/17 04:40:38;;;;;;;;;;;;;;;15.11;nan;99951.06;5064006;28;20640;-75
2022/05/17 04:43:04;;;;;;;;;;;;;;;15.23;nan;99950.97;5064232;28;19978;-75
2022/05/17 04:45:30;;;;;;;;;;;;;;;15.46;nan;99945.66;5064072;28;19968;-76
2022/05/17 04:47:55;;;;;;;;;;;;;;;15.67;nan;99951.91;5064938;28;20128;-75
2022/05/17 04:50:20;;;;;;;;;;;;;;;15.95;nan;99947.09;5064712;28;19967;-75
2022/05/17 04:52:47;;;;;;;;;;;;;;;16.27;nan;99947.13;5064895;28;20023;-75
2022/05/17 04:55:14;;;;;;;;;;;;;;;16.72;nan;99944.28;5061687;28;19987;-75
2022/05/17 04:57:39;;;;;;;;;;;;;;;17.15;nan;99942.50;5062039;28;20257;-75
2022/05/17 05:00:08;;;;;;;;;;;;;;;17.54;nan;99947.97;5062520;28;19963;-75
2022/05/17 05:02:33;;;;;;;;;;;;;;;17.89;nan;99947.56;5064145;28;20188;-75
2022/05/17 05:04:59;;;;;;;;;;;;;;;18.18;nan;99946.78;5063427;28;20040;-75
2022/05/17 05:07:24;;;;;;;;;;;;;;;18.28;nan;99955.59;5064983;28;20427;-75
2022/05/17 05:09:49;;;;;;;;;;;;;;;18.13;nan;99953.34;5065790;28;19971;-75
2022/05/17 05:12:16;;;;;;;;;;;;;;;18.05;nan;99949.69;5064898;28;20590;-73
2022/05/17 05:14:41;;;;;;;;;;;;;;;17.95;nan;99954.13;5064385;28;20094;-75
2022/05/17 05:17:07;;;;;;;;;;;;;;;17.76;nan;99962.88;5064561;28;19972;-75
2022/05/17 05:19:33;;;;;;;;;;;;;;;17.57;nan;99963.63;5064010;28;20459;-76
2022/05/17 05:21:58;;;;;;;;;;;;;;;17.39;nan;99958.97;5064364;28;19975;-73
2022/05/17 05:24:23;;;;;;;;;;;;;;;17.25;nan;99964.59;5064927;28;19976;-75
2022/05/17 05:26:49;;;;;;;;;;;;;;;17.17;nan;99967.06;5065948;28;20128;-73
2022/05/17 05:29:14;;;;;;;;;;;;;;;17.10;nan;99968.59;5066366;28;19993;-74
2022/05/17 05:31:39;;;;;;;;;;;;;;;17.05;nan;99965.47;5066508;28;20360;-75
2022/05/17 05:34:04;;;;;;;;;;;;;;;17.06;nan;99970.63;5064847;28;20040;-74
2022/05/17 05:36:30;;;;;;;;;;;;;;;17.10;nan;99971.25;5066724;28;19978;-74
2022/05/17 05:38:56;;;;;;;;;;;;;;;17.16;nan;99970.72;5066189;28;20206;-76
2022/05/17 05:41:21;;;;;;;;;;;;;;;17.24;nan;99974.38;5067411;28;19971;-73
2022/05/17 05:43:46;;;;;;;;;;;;;;;17.32;nan;99972.91;5067656;28;19971;-75
2022/05/17 05:46:12;;;;;;;;;;;;;;;17.39;nan;99972.25;5066753;28;20434;-76
2022/05/17 05:48:37;;;;;;;;;;;;;;;17.49;nan;99972.25;5067225;28;19983;-76
2022/05/17 05:51:03;;;;;;;;;;;;;;;17.54;nan;99969.22;5066559;28;19971;-73
2022/05/17 05:53:28;;;;;;;;;;;;;;;17.56;nan;99969.94;5066454;28;19993;-76
2022/05/17 05:56:03;;;;;;;;;;;;;;;17.62;nan;99966.75;5065613;28;19975;-74
2022/05/17 05:58:29;;;;;;;;;;;;;;;17.70;nan;99975.72;4988838;28;20352;-73
2022/05/17 06:00:54;;;;;;;;;;;;;;;17.81;nan;99977.47;5044447;28;20603;-76
2022/05/17 06:03:21;;;;;;;;;;;;;;;18.04;nan;99985.22;5045255;28;19972;-75
2022/05/17 06:05:46;;;;;;;;;;;;;;;18.22;nan;99980.91;5045706;28;19980;-73
2022/05/17 06:08:13;;;;;;;;;;;;;;;18.32;nan;99983.59;5045688;28;19991;-74
2022/05/17 06:10:38;;;;;;;;;;;;;;;18.41;nan;99981.91;5048353;28;20021;-73
2022/05/17 06:13:03;;;;;;;;;;;;;;;18.46;nan;99977.84;5049787;28;20402;-73
2022/05/17 06:15:29;;;;;;;;;;;;;;;18.51;nan;99982.78;5049343;28;20387;-73
2022/05/17 06:17:54;;;;;;;;;;;;;;;18.51;nan;99988.94;5048644;28;20014;-75
2022/05/17 06:20:19;;;;;;;;;;;;;;;18.58;nan;99997.22;5050353;28;20427;-73
2022/05/17 06:22:45;;;;;;;;;;;;;;;18.68;nan;99998.03;5049571;28;19975;-73
2022/05/17 06:25:11;;;;;;;;;;;;;;;18.76;nan;99989.38;5045749;28;20089;-74
2022/05/17 06:27:36;;;;;;;;;;;;;;;18.86;nan;99986.72;5055028;28;19988;-74
2022/05/17 06:30:02;;;;;;;;;;;;;;;18.98;nan;99980.25;5043191;28;19971;-75
2022/05/17 06:32:27;;;;;;;;;;;;;;;19.16;nan;99991.00;5042174;28;20009;-72
2022/05/17 06:34:53;;;;;;;;;;;;;;;19.33;nan;99995.59;5044262;28;20545;-73
2022/05/17 06:37:18;;;;;;;;;;;;;;;19.45;nan;99989.09;5045983;28;19972;-74
2022/05/17 06:39:45;;;;;;;;;;;;;;;19.58;nan;99987.97;5047720;28;20087;-73
2022/05/17 06:42:11;;;;;;;;;;;;;;;19.70;nan;99992.13;5047444;28;20062;-73
2022/05/17 06:44:37;;;;;;;;;;;;;;;19.75;nan;99984.53;5047843;28;20070;-74
2022/05/17 06:47:03;;;;;;;;;;;;;;;19.79;nan;99985.06;5047590;28;19983;-75
2022/05/17 06:49:28;;;;;;;;;;;;;;;19.88;nan;99989.53;5046788;28;19992;-72
2022/05/17 06:51:57;;;;;;;;;;;;;;;20.16;nan;99984.19;5047938;28;20010;-74
2022/05/17 06:54:22;;;;;;;;;;;;;;;20.50;nan;99987.88;5048256;28;20022;-75
2022/05/17 06:56:48;;;;;;;;;;;;;;;20.78;nan;99987.81;5046911;28;20450;-73
2022/05/17 06:59:13;;;;;;;;;;;;;;;21.16;nan;99991.94;5046444;28;20051;-75
2022/05/17 07:01:39;;;;;;;;;;;;;;;21.50;nan;99993.84;5047637;28;19991;-74
2022/05/17 07:04:04;;;;;;;;;;;;;;;21.78;nan;99988.31;5046584;28;20071;-73
2022/05/17 07:06:30;;;;;;;;;;;;;;;21.93;nan;99985.84;5047486;28;19996;-73
2022/05/17 07:08:55;;;;;;;;;;;;;;;22.03;nan;99991.91;5046371;28;20053;-77
2022/05/17 07:14:04;;;;;;;;;;;;;;;22.34;nan;99994.88;5046612;28;19963;-76
2022/05/17 07:16:30;;;;;;;;;;;;;;;22.49;nan;99997.72;5047434;28;19990;-72
2022/05/17 07:18:55;;;;;;;;;;;;;;;22.49;nan;99992.38;5046482;28;19995;-71
2022/05/17 07:21:20;;;;;;;;;;;;;;;22.48;nan;99994.22;5046249;28;20496;-71
2022/05/17 07:23:46;;;;;;;;;;;;;;;22.69;nan;99998.25;5046388;28;19960;-71
2022/05/17 07:26:12;;;;;;;;;;;;;;;22.97;nan;99991.59;5046418;28;19981;-71
2022/05/17 07:28:41;;;;;;;;;;;;;;;23.35;nan;99985.66;5047402;28;20193;-72
2022/05/17 07:31:07;;;;;;;;;;;;;;;23.68;nan;99982.88;5045765;28;19972;-72
2022/05/17 07:33:35;;;;;;;;;;;;;;;24.03;nan;99977.09;5044477;28;19998;-75
2022/05/17 07:36:01;;;;;;;;;;;;;;;24.31;nan;99979.25;5045535;28;20376;-76
2022/05/17 07:38:27;;;;;;;;;;;;;;;24.58;nan;99969.88;5046886;28;19968;-73
2022/05/17 07:40:53;;;;;;;;;;;;;;;24.90;nan;99976.00;5045582;28;20022;-73
2022/05/17 07:43:18;;;;;;;;;;;;;;;25.05;nan;99968.78;5046890;28;20175;-73
2022/05/17 07:45:44;;;;;;;;;;;;;;;25.10;nan;99974.44;5046627;28;19950;-74
2022/05/17 07:48:11;;;;;;;;;;;;;;;25.24;nan;99967.44;5045857;28;20033;-76
2022/05/17 07:50:36;;;;;;;;;;;;;;;25.37;nan;99974.88;5017092;28;21515;-74
2022/05/17 07:53:10;;;;;;;;;;;;;;;25.48;nan;99969.03;5045647;28;19946;-76
2022/05/17 07:55:36;;;;;;;;;;;;;;;25.44;nan;99974.97;5046502;28;19946;-72
2022/05/17 07:58:03;;;;;;;;;;;;;;;25.45;nan;99971.28;5044893;28;19959;-72
2022/05/17 08:00:28;;;;;;;;;;;;;;;25.47;nan;99975.44;5046783;28;20021;-73
2022/05/17 08:02:56;;;;;;;;;;;;;;;25.48;nan;99969.03;5045357;28;19975;-74
2022/05/17 08:05:21;;;;;;;;;;;;;;;25.24;nan;99963.94;5045359;28;20416;-72
2022/05/17 08:07:48;;;;;;;;;;;;;;;25.33;nan;99966.38;5046648;28;19992;-74
2022/05/17 08:10:13;;;;;;;;;;;;;;;25.34;nan;99965.34;5046312;28;20434;-75
2022/05/17 08:12:39;;;;;;;;;;;;;;;25.47;nan;99961.19;5045193;28;19978;-75
2022/05/17 08:15:04;;;;;;;;;;;;;;;25.49;nan;99965.34;5044882;28;19992;-74
2022/05/17 08:17:30;;;;;;;;;;;;;;;25.69;nan;99960.22;5045002;28;19990;-73
2022/05/17 08:19:55;;;;;;;;;;;;;;;25.64;nan;99949.19;5044403;28;20190;-73
2022/05/17 08:22:20;;;;;;;;;;;;;;;25.63;nan;99955.59;5045171;28;19975;-73
2022/05/17 08:27:36;;;;;;;;;;;;;;;25.64;nan;99946.50;5044383;28;20436;-73
2022/05/17 08:30:22;;;;;;;;;;;;;;;25.68;nan;99950.50;5045091;28;19972;-75
2022/05/17 08:35:39;;;;;;;;;;;;;;;26.08;nan;99948.28;5045451;28;19975;-72
2022/05/17 08:38:05;;;;;;;;;;;;;;;25.98;nan;99950.47;5044219;28;20010;-72
2022/05/17 08:40:32;;;;;;;;;;;;;;;25.79;nan;99946.50;5043447;28;19997;-75
2022/05/17 08:43:00;;;;;;;;;;;;;;;25.70;nan;99945.75;5014308;28;20354;-76
2022/05/17 08:45:32;;;;;;;;;;;;;;;25.68;nan;99939.72;5001445;28;20036;-73
2022/05/17 08:47:57;;;;;;;;;;;;;;;25.68;nan;99938.88;5005515;28;20210;-75
2022/05/17 08:50:25;;;;;;;;;;;;;;;25.56;nan;99946.59;5005805;28;19971;-74
2022/05/17 08:52:53;;;;;;;;;;;;;;;25.58;nan;99944.56;5004557;28;19972;-74
2022/05/17 08:55:28;;;;;;;;;;;;;;;25.68;nan;99942.44;4986925;28;20492;-72
2022/05/17 08:57:56;;;;;;;;;;;;;;;25.83;nan;99937.00;5004586;28;20088;-73
2022/05/17 09:00:28;;;;;;;;;;;;;;;25.94;nan;99944.63;5004836;28;20026;-76
2022/05/17 09:03:20;;;;;;;;;;;;;;;25.98;nan;99945.91;5005590;28;20030;-73
2022/05/17 09:05:54;;;;;;;;;;;;;;;25.98;nan;99947.78;4981475;28;20020;-73
2022/05/17 09:08:31;;;;;;;;;;;;;;;26.05;nan;99940.59;5004796;28;20002;-73
2022/05/17 09:11:06;;;;;;;;;;;;;;;26.05;nan;99945.97;5004468;28;20708;-77
2022/05/17 09:13:47;;;;;;;;;;;;;;;26.06;nan;99936.91;5005712;28;20132;-76
2022/05/17 09:16:14;;;;;;;;;;;;;;;26.11;nan;99933.63;5004118;28;20003;-77
2022/05/17 09:18:40;;;;;;;;;;;;;;;26.27;nan;99931.53;5004730;28;19961;-77
2022/05/17 09:21:23;;;;;;;;;;;;;;;26.44;nan;99929.41;5005232;28;20538;-73
2022/05/17 09:23:48;;;;;;;;;;;;;;;26.50;nan;99927.81;5004301;28;19990;-73
2022/05/17 09:26:17;;;;;;;;;;;;;;;26.52;nan;99935.72;4979455;28;19946;-73
2022/05/17 09:28:43;;;;;;;;;;;;;;;26.47;nan;99928.19;5004056;28;19969;-72
2022/05/17 09:31:09;;;;;;;;;;;;;;;26.40;nan;99929.97;5004966;28;19945;-72
2022/05/17 09:33:37;;;;;;;;;;;;;;;26.46;nan;99929.19;5005041;28;19973;-72
2022/05/17 09:36:02;;;;;;;;;;;;;;;26.41;nan;99924.41;5004878;28;20547;-73
2022/05/17 09:38:31;;;;;;;;;;;;;;;26.54;nan;99923.72;5004194;28;19960;-74
2022/05/17 09:40:57;;;;;;;;;;;;;;;26.64;nan;99924.22;5004845;28;20006;-73
2022/05/17 09:43:44;;;;;;;;;;;;;;;26.68;nan;99924.66;5004631;28;20415;-72
2022/05/17 09:46:14;;;;;;;;;;;;;;;26.80;nan;99923.09;5002392;28;19995;-74
2022/05/17 09:54:31;;;;;;;;;;;;;;;26.92;nan;99915.31;5003242;28;20108;-75
2022/05/17 09:57:10;;;;;;;;;;;;;;;27.12;nan;99910.91;5004125;28;20372;-74
2022/05/17 09:59:35;;;;;;;;;;;;;;;27.33;nan;99901.94;5004343;28;20002;-73
2022/05/17 10:02:01;;;;;;;;;;;;;;;27.46;nan;99909.22;5004909;28;20010;-72
2022/05/17 10:04:26;;;;;;;;;;;;;;;27.47;nan;99902.81;5003949;28;20298;-75
2022/05/17 10:06:55;;;;;;;;;;;;;;;27.53;nan;99896.63;5005181;28;20017;-73
2022/05/17 10:09:29;;;;;;;;;;;;;;;27.63;nan;99890.03;5003478;28;20025;-74
2022/05/17 10:12:07;;;;;;;;;;;;;;;27.63;nan;99881.94;5007814;28;19942;-75
2022/05/17 10:14:40;;;;;;;;;;;;;;;27.65;nan;99877.13;5008892;28;19963;-73
2022/05/17 10:17:12;;;;;;;;;;;;;;;27.68;nan;99877.59;5007916;28;20464;-75
2022/05/17 10:19:37;;;;;;;;;;;;;;;27.71;nan;99871.78;5008597;28;20315;-73
2022/05/17 10:22:16;;;;;;;;;;;;;;;27.72;nan;99878.84;5006393;28;20337;-73
2022/05/17 10:25:02;;;;;;;;;;;;;;;27.87;nan;99876.00;5008814;28;20029;-74
2022/05/17 10:27:27;;;;;;;;;;;;;;;27.93;nan;99872.50;5007400;28;20013;-75
2022/05/17 10:29:53;;;;;;;;;;;;;;;27.91;nan;99866.44;5007261;28;19934;-72
2022/05/17 10:32:38;;;;;;;;;;;;;;;27.86;nan;99863.53;5006796;28;20250;-73
2022/05/17 10:35:10;;;;;;;;;;;;;;;27.99;nan;99865.44;5007653;28;19969;-73
2022/05/17 10:37:44;;;;;;;;;;;;;;;28.13;nan;99856.31;5008704;28;19955;-72
2022/05/17 10:40:12;;;;;;;;;;;;;;;28.26;nan;99869.00;5007097;28;19935;-73
2022/05/17 10:42:38;;;;;;;;;;;;;;;28.14;nan;99863.41;5006147;28;19980;-73
2022/05/17 10:45:05;;;;;;;;;;;;;;;28.10;nan;99869.41;5007256;28;19942;-73
2022/05/17 10:47:39;;;;;;;;;;;;;;;28.08;nan;99855.25;5009181;28;20025;-75
2022/05/17 10:50:14;;;;;;;;;;;;;;;28.04;nan;99852.16;5007801;28;19933;-75
2022/05/17 10:52:53;;;;;;;;;;;;;;;27.98;nan;99856.50;5007960;28;19964;-74
2022/05/17 10:55:37;;;;;;;;;;;;;;;27.95;nan;99856.06;5007470;28;19973;-76
2022/05/17 10:58:15;;;;;;;;;;;;;;;27.89;nan;99846.91;5006241;28;20041;-72
2022/05/17 11:00:43;;;;;;;;;;;;;;;27.91;nan;99849.44;5008123;28;19935;-73
2022/05/17 11:03:12;;;;;;;;;;;;;;;28.01;nan;99839.91;5006956;28;19931;-72
2022/05/17 11:05:47;;;;;;;;;;;;;;;27.97;nan;99833.22;5007269;28;19989;-74
2022/05/17 11:08:30;;;;;;;;;;;;;;;27.96;nan;99836.16;5006706;28;19958;-74
2022/05/17 11:11:18;;;;;;;;;;;;;;;28.06;nan;99827.63;5008219;28;19942;-72
2022/05/17 11:13:47;;;;;;;;;;;;;;;28.19;nan;99830.34;5006865;28;19985;-75
2022/05/17 11:16:24;;;;;;;;;;;;;;;28.32;nan;99824.13;5003657;28;20026;-75
2022/05/17 11:18:54;;;;;;;;;;;;;;;28.28;nan;99812.91;5007154;28;19959;-75
2022/05/17 11:21:23;;;;;;;;;;;;;;;28.21;nan;99815.59;5004489;28;19935;-73
2022/05/17 11:23:55;;;;;;;;;;;;;;;28.22;nan;99819.16;5007499;28;19942;-75
2022/05/17 11:26:21;;;;;;;;;;;;;;;28.26;nan;99806.88;5003400;28;19939;-73
2022/05/17 11:28:49;;;;;;;;;;;;;;;28.23;nan;99813.53;5007061;28;19959;-75
2022/05/17 11:31:17;;;;;;;;;;;;;;;28.17;nan;99808.13;5006438;28;19942;-73
2022/05/17 11:33:42;;;;;;;;;;;;;;;28.14;nan;99806.69;5010255;28;20366;-74
2022/05/17 11:36:08;;;;;;;;;;;;;;;28.13;nan;99806.88;5012667;28;20453;-74
2022/05/17 11:38:39;;;;;;;;;;;;;;;28.13;nan;99806.88;5022356;28;19955;-74
2022/05/17 11:41:13;;;;;;;;;;;;;;;28.02;nan;99803.75;5023663;28;20473;-72
2022/05/17 11:43:41;;;;;;;;;;;;;;;27.90;nan;99801.88;5025956;28;19934;-72
2022/05/17 11:46:27;;;;;;;;;;;;;;;27.80;nan;99799.56;5027620;28;19978;-73
2022/05/17 11:48:53;;;;;;;;;;;;;;;27.72;nan;99797.84;5011633;28;20057;-72
2022/05/17 11:51:19;;;;;;;;;;;;;;;27.69;nan;99792.06;5026456;28;19935;-74
2022/05/17 11:53:46;;;;;;;;;;;;;;;27.70;nan;99791.81;5026966;28;19964;-75
2022/05/17 11:56:18;;;;;;;;;;;;;;;27.65;nan;99799.69;5023630;28;19997;-73
2022/05/17 11:58:47;;;;;;;;;;;;;;;27.53;nan;99793.25;5024360;28;20166;-71
2022/05/17 12:01:33;;;;;;;;;;;;;;;27.37;nan;99789.06;5024633;28;19945;-74
2022/05/17 12:04:37;;;;;;;;;;;;;;;27.38;nan;99782.63;5011990;28;20009;-75
2022/05/17 12:07:18;;;;;;;;;;;;;;;27.35;nan;99775.78;4969142;28;19947;-72
2022/05/17 12:09:50;;;;;;;;;;;;;;;27.45;nan;99779.94;4964776;28;19964;-74
2022/05/17 12:12:16;;;;;;;;;;;;;;;27.47;nan;99780.59;5009736;28;19985;-72
2022/05/17 12:15:01;;;;;;;;;;;;;;;27.49;nan;99782.06;5023983;28;20005;-73
2022/05/17 12:17:30;;;;;;;;;;;;;;;27.58;nan;99774.59;5024499;28;21087;-74
2022/05/17 12:20:11;;;;;;;;;;;;;;;27.66;nan;99769.00;5025418;28;19935;-71
2022/05/17 12:22:43;;;;;;;;;;;;;;;27.76;nan;99757.78;5025597;28;20288;-74
2022/05/17 12:25:16;;;;;;;;;;;;;;;27.65;nan;99758.41;5025318;28;19993;-73
2022/05/17 12:27:43;;;;;;;;;;;;;;;27.64;nan;99757.56;5023146;28;19954;-74
2022/05/17 12:32:52;;;;;;;;;;;;;;;27.73;nan;99747.41;5025518;28;19942;-74
2022/05/17 12:35:27;;;;;;;;;;;;;;;27.77;nan;99740.56;5023819;28;19965;-74
2022/05/17 12:37:53;;;;;;;;;;;;;;;27.86;nan;99733.94;5023032;28;20236;-74
2022/05/17 12:43:12;;;;;;;;;;;;;;;28.06;nan;99728.56;5025677;28;19949;-72
2022/05/17 12:45:43;;;;;;;;;;;;;;;28.04;nan;99717.13;5023051;28;19946;-72
2022/05/17 12:48:24;;;;;;;;;;;;;;;27.98;nan;99718.81;5021042;28;20478;-71
2022/05/17 12:50:53;;;;;;;;;;;;;;;27.97;nan;99714.44;5019488;28;20406;-73
2022/05/17 12:53:21;;;;;;;;;;;;;;;28.05;nan;99707.16;5021220;28;19979;-74
2022/05/17 12:55:57;;;;;;;;;;;;;;;28.14;nan;99719.41;5039535;28;20025;-76
2022/05/17 12:58:23;;;;;;;;;;;;;;;28.09;nan;99703.03;5024866;28;19958;-75
2022/05/17 13:00:52;;;;;;;;;;;;;;;28.04;nan;99713.63;5024486;28;19945;-76
2022/05/17 13:03:19;;;;;;;;;;;;;;;27.97;nan;99706.31;5025161;28;20040;-76
2022/05/17 13:05:51;;;;;;;;;;;;;;;27.88;nan;99707.59;4994237;28;20371;-75
2022/05/17 13:08:21;;;;;;;;;;;;;;;27.87;nan;99697.84;5057435;28;19966;-74
2022/05/17 13:11:01;;;;;;;;;;;;;;;27.79;nan;99698.84;5043768;28;19952;-77
2022/05/17 13:13:27;;;;;;;;;;;;;;;27.89;nan;99692.22;5060132;28;20331;-75
2022/05/17 13:15:58;;;;;;;;;;;;;;;28.03;nan;99696.59;5044080;28;20304;-75
2022/05/17 13:18:27;;;;;;;;;;;;;;;28.05;nan;99691.78;5043041;28;20330;-77
2022/05/17 13:20:53;;;;;;;;;;;;;;;27.95;nan;99689.53;5044009;28;19955;-74
2022/05/17 13:23:25;;;;;;;;;;;;;;;27.96;nan;99682.25;5045138;28;19942;-76
2022/05/17 13:25:53;;;;;;;;;;;;;;;28.08;nan;99690.53;5043886;28;19941;-74
2022/05/17 13:28:31;;;;;;;;;;;;;;;28.06;nan;99689.91;5044589;28;19953;-77
2022/05/17 13:31:01;;;;;;;;;;;;;;;28.07;nan;99686.19;5075958;28;20063;-75
2022/05/17 13:33:29;;;;;;;;;;;;;;;28.11;nan;99684.72;5043672;28;20481;-74